Hauptseite
METAR-TAF:

METAR-TAF

Flughäfen :

Flughafen Grenchen

Grenchen, Schweiz

Breite: 47-10-53N, Länge: 007-24-59E, Höhe: 430 m

Beobachtung

Neuester Wetterbericht von vor 11 Minuten, um 15:50 UTC
Wind 8 kt aus Ost
Temperatur 22°C
Luftfeuchtigkeit 60%
Luftdruck 1023 hPa
Sichtweite 10 km oder mehr
keine Wolken unter 1500 m und keine Kumulonimbus oder Gewitterwolken

METAR: LSZG 231550Z AUTO 08008KT CAVOK 22/14 Q1023

Zeit: 18:01 (16:01 UTC)

Prognose

Neuester Wetterbericht von vor 1 Stunde und 36 Minuten, um 14:25 UTC
Gültige Prognose vom 23 um 15 UTC bis 23 um 24 UTC
Wind 8 kt aus Ost/Nordost
Sichtweite 10 km oder mehr
Leicht bewölkt in der Höhe von 2500 ft
Wahrscheinlichkeit 40%
vom 23 um 15 UTC bis 23 um 24 UTC
Sichtweite 10 km oder mehr
keine Wolken unter 1500 m und keine Kumulonimbus oder Gewitterwolken

TAF: LSZG 231425Z 2315/2324 06008KT 9999 FEW025 PROB40 2315/2324 CAVOK

Wetterbeobachtungen und Prognosen von mehr als 4000 Flughäfen (METAR und TAF Bericht).

Die verfügbaren Stationen werden durch gelbe und rote Markierungen auf der Karte dargestellt.

Führen Sie die Maus auf sie, um den Namen der Station zu sehen.

Darauf klicken, um die Beobachtung von Wetterbeobachtungen und Prognosen zu sehen.

Um die Karte zu ändern : klicken Sie auf den grünen Tasten mit einem schwarzen Kreuz Zum Vergrößern, auf den grünen Button mit einem Gedankenstrich zu verkleinern, oder auf die grünen Pfeile für benachbarte Karten.


METAR-TAF: